createdAt,value
2023-02-11T00:01:36.980Z,10.57
2023-02-11T00:04:05.463Z,10.57
2023-02-11T00:06:35.848Z,9.97
2023-02-11T00:09:03.773Z,10.47
2023-02-11T00:11:30.776Z,10.17
2023-02-11T00:13:59.230Z,10.77
2023-02-11T00:16:26.364Z,11.23
2023-02-11T00:18:55.664Z,10.23
2023-02-11T00:21:24.763Z,10.00
2023-02-11T00:23:52.266Z,10.40
2023-02-11T00:26:20.449Z,10.67
2023-02-11T00:28:48.779Z,10.40
2023-02-11T00:31:20.907Z,10.57
2023-02-11T00:33:47.737Z,10.53
2023-02-11T00:36:23.744Z,9.73
2023-02-11T00:38:54.230Z,9.50
2023-02-11T00:41:24.021Z,10.10
2023-02-11T00:43:53.792Z,10.67
2023-02-11T00:46:21.224Z,10.07
2023-02-11T00:48:48.403Z,9.80
2023-02-11T00:51:15.804Z,10.30
2023-02-11T00:53:42.893Z,9.87
2023-02-11T00:56:10.067Z,10.33
2023-02-11T00:58:37.299Z,10.50
2023-02-11T01:01:05.076Z,10.50
2023-02-11T01:03:32.318Z,9.53
2023-02-11T01:05:59.531Z,11.18
2023-02-11T01:08:26.933Z,10.23
2023-02-11T01:10:54.973Z,10.10
2023-02-11T01:13:24.641Z,10.17
2023-02-11T01:15:52.052Z,9.43
2023-02-11T01:18:22.467Z,10.57
2023-02-11T01:20:51.787Z,10.32
2023-02-11T01:23:22.049Z,10.27
2023-02-11T01:25:49.613Z,9.70
2023-02-11T01:28:23.351Z,9.87
2023-02-11T01:30:50.532Z,10.03
2023-02-11T01:33:17.958Z,9.80
2023-02-11T01:35:45.099Z,9.03
2023-02-11T01:38:19.533Z,9.13
2023-02-11T01:41:00.258Z,9.53
2023-02-11T01:43:32.063Z,9.23
2023-02-11T01:46:01.009Z,9.40
2023-02-11T01:48:35.070Z,9.90
2023-02-11T01:51:05.561Z,10.00
2023-02-11T01:53:51.801Z,10.03
2023-02-11T01:56:38.811Z,10.03
2023-02-11T01:59:11.085Z,11.15
2023-02-11T02:01:38.985Z,9.73
2023-02-11T02:04:07.100Z,10.03
2023-02-11T02:06:36.179Z,9.53
2023-02-11T02:09:12.159Z,9.77
2023-02-11T02:11:41.511Z,9.07
2023-02-11T02:14:11.102Z,10.15
2023-02-11T02:16:38.482Z,10.07
2023-02-11T02:19:24.455Z,9.60
2023-02-11T02:21:51.538Z,9.57
2023-02-11T02:24:21.084Z,9.10
2023-02-11T02:26:59.794Z,9.47
2023-02-11T02:30:00.616Z,9.17
2023-02-11T02:32:27.263Z,9.57
2023-02-11T02:35:23.646Z,9.03
2023-02-11T02:38:23.714Z,8.67
2023-02-11T02:41:00.114Z,9.27
2023-02-11T02:43:27.792Z,9.90
2023-02-11T02:45:54.953Z,9.67
2023-02-11T02:48:35.726Z,10.37
2023-02-11T02:51:19.827Z,8.97
2023-02-11T02:54:37.389Z,9.37
2023-02-11T02:57:31.273Z,8.87
2023-02-11T03:00:23.622Z,10.07
2023-02-11T03:03:08.902Z,9.77
2023-02-11T03:05:44.523Z,9.30
2023-02-11T03:08:23.333Z,11.32
2023-02-11T03:10:53.391Z,9.10
2023-02-11T03:13:22.967Z,9.37
2023-02-11T03:15:53.879Z,9.87
2023-02-11T03:18:24.667Z,9.10
2023-02-11T03:20:54.346Z,10.10
2023-02-11T03:23:28.701Z,9.60
2023-02-11T03:26:07.809Z,9.17
2023-02-11T03:28:52.540Z,8.70
2023-02-11T03:32:02.558Z,9.33
2023-02-11T03:34:46.929Z,9.07
2023-02-11T03:37:21.868Z,9.07
2023-02-11T03:40:14.997Z,8.93
2023-02-11T03:42:46.070Z,8.77
2023-02-11T03:45:20.359Z,10.02
2023-02-11T03:47:52.021Z,9.50
2023-02-11T03:50:20.625Z,9.73
2023-02-11T03:52:49.449Z,8.90
2023-02-11T03:55:19.986Z,9.40
2023-02-11T03:57:47.816Z,9.33
2023-02-11T04:00:15.304Z,9.57
2023-02-11T04:02:43.179Z,9.20
2023-02-11T04:05:15.165Z,9.33
2023-02-11T04:07:42.171Z,9.97
2023-02-11T04:10:09.104Z,9.10
2023-02-11T04:12:40.521Z,9.67
2023-02-11T04:15:07.646Z,9.93
2023-02-11T04:17:34.501Z,9.47
2023-02-11T04:20:03.750Z,9.30
2023-02-11T04:22:31.597Z,9.67
2023-02-11T04:24:58.330Z,9.80
2023-02-11T04:27:25.209Z,10.03
2023-02-11T04:29:54.344Z,9.57
2023-02-11T04:32:21.501Z,10.37
2023-02-11T04:34:48.370Z,10.27
2023-02-11T04:37:19.984Z,9.23
2023-02-11T04:39:48.884Z,12.38
2023-02-11T04:42:18.184Z,11.27
2023-02-11T04:44:47.339Z,10.20
2023-02-11T04:47:16.628Z,10.27
2023-02-11T04:49:45.544Z,10.13
2023-02-11T04:52:12.268Z,10.67
2023-02-11T04:54:39.157Z,12.02
2023-02-11T04:57:06.213Z,10.37
2023-02-11T04:59:33.309Z,10.83
2023-02-11T05:02:00.039Z,10.37
2023-02-11T05:04:26.762Z,9.47
2023-02-11T05:06:57.706Z,9.43
2023-02-11T05:09:25.371Z,10.20
2023-02-11T05:11:56.482Z,9.57
2023-02-11T05:14:27.838Z,10.53
2023-02-11T05:16:54.541Z,10.77
2023-02-11T05:19:25.617Z,10.10
2023-02-11T05:22:02.666Z,11.40
2023-02-11T05:24:36.761Z,10.80
2023-02-11T05:27:03.635Z,11.07
2023-02-11T05:29:35.911Z,10.43
2023-02-11T05:32:04.886Z,12.82
2023-02-11T05:34:31.532Z,11.53
2023-02-11T05:37:00.700Z,11.17
2023-02-11T05:39:29.620Z,11.00
2023-02-11T05:41:56.468Z,11.73
2023-02-11T05:44:23.124Z,10.87
2023-02-11T05:46:52.003Z,10.73
2023-02-11T05:49:23.400Z,10.93
2023-02-11T05:51:50.178Z,11.50
2023-02-11T05:54:19.272Z,11.17
2023-02-11T05:56:45.919Z,11.37
2023-02-11T05:59:14.277Z,11.03
2023-02-11T06:01:41.366Z,11.43
2023-02-11T06:04:08.125Z,12.17
2023-02-11T06:06:34.870Z,11.33
2023-02-11T06:09:04.314Z,11.30
2023-02-11T06:11:31.016Z,11.97
2023-02-11T06:13:57.797Z,12.40
2023-02-11T06:16:24.573Z,11.73
2023-02-11T06:18:51.275Z,11.93
2023-02-11T06:21:20.116Z,12.17
2023-02-11T06:23:46.831Z,14.75
2023-02-11T06:26:23.601Z,12.83
2023-02-11T06:28:50.415Z,12.50
2023-02-11T06:31:17.596Z,12.23
2023-02-11T06:33:50.184Z,12.30
2023-02-11T06:36:19.486Z,11.83
2023-02-11T06:38:49.324Z,13.43
2023-02-11T06:41:20.068Z,13.23
2023-02-11T06:43:49.859Z,12.57
2023-02-11T06:46:16.673Z,12.40
2023-02-11T06:48:44.972Z,12.33
2023-02-11T06:51:13.412Z,12.47
2023-02-11T06:53:45.529Z,12.63
2023-02-11T06:56:14.036Z,11.97
2023-02-11T06:58:41.263Z,12.93
2023-02-11T07:01:12.740Z,11.67
2023-02-11T07:03:40.703Z,12.63
2023-02-11T07:06:12.514Z,13.50
2023-02-11T07:08:42.964Z,12.03
2023-02-11T07:11:14.177Z,12.07
2023-02-11T07:13:41.345Z,14.18
2023-02-11T07:16:10.083Z,12.60
2023-02-11T07:18:37.306Z,12.30
2023-02-11T07:21:07.992Z,12.03
2023-02-11T07:23:35.546Z,12.53
2023-02-11T07:26:06.592Z,12.30
2023-02-11T07:28:36.773Z,11.27
2023-02-11T07:31:14.531Z,12.80
2023-02-11T07:33:41.683Z,12.53
2023-02-11T07:36:10.390Z,12.47
2023-02-11T07:38:37.587Z,12.73
2023-02-11T07:41:09.300Z,11.47
2023-02-11T07:43:37.427Z,11.93
2023-02-11T07:46:06.140Z,12.43
2023-02-11T07:48:32.862Z,11.57
2023-02-11T07:51:29.627Z,12.33
2023-02-11T07:53:59.549Z,11.30
2023-02-11T07:56:27.512Z,13.13
2023-02-11T07:58:55.011Z,11.87
2023-02-11T08:01:25.299Z,12.70
2023-02-11T08:03:57.591Z,14.68
2023-02-11T08:06:25.921Z,13.53
2023-02-11T08:08:55.281Z,12.80
2023-02-11T08:11:27.239Z,12.33
2023-02-11T08:13:57.619Z,12.40
2023-02-11T08:16:27.178Z,13.73
2023-02-11T08:18:57.581Z,15.43
2023-02-11T08:21:25.109Z,13.83
2023-02-11T08:23:52.684Z,13.60
2023-02-11T08:26:22.961Z,13.90
2023-02-11T08:28:51.239Z,13.53
2023-02-11T08:31:29.594Z,13.20
2023-02-11T08:33:59.806Z,12.97
2023-02-11T08:36:29.249Z,12.97
2023-02-11T08:39:08.543Z,12.80
2023-02-11T08:41:39.547Z,13.63
2023-02-11T08:44:08.906Z,13.77
2023-02-11T08:46:36.030Z,12.70
2023-02-11T08:49:03.074Z,13.17
2023-02-11T08:51:33.030Z,12.90
2023-02-11T08:54:02.694Z,12.53
2023-02-11T08:56:31.542Z,12.10
2023-02-11T08:58:58.676Z,12.90
2023-02-11T09:01:27.362Z,12.67
2023-02-11T09:03:54.643Z,13.43
2023-02-11T09:06:24.599Z,14.07
2023-02-11T09:08:53.397Z,12.70
2023-02-11T09:11:29.992Z,12.67
2023-02-11T09:13:56.842Z,12.30
2023-02-11T09:16:29.116Z,11.50
2023-02-11T09:19:00.253Z,12.57
2023-02-11T09:21:30.269Z,11.53
2023-02-11T09:23:57.143Z,12.90
2023-02-11T09:26:30.176Z,12.10
2023-02-11T09:29:00.280Z,11.20
2023-02-11T09:31:30.369Z,11.57
2023-02-11T09:34:00.548Z,11.75
2023-02-11T09:36:29.210Z,11.40
2023-02-11T09:38:56.806Z,11.73
2023-02-11T09:41:23.970Z,11.60
2023-02-11T09:43:55.898Z,11.03
2023-02-11T09:46:23.917Z,11.30
2023-02-11T09:48:54.901Z,10.18
2023-02-11T09:51:31.418Z,11.10
2023-02-11T09:54:05.171Z,10.97
2023-02-11T09:56:34.834Z,10.30
2023-02-11T09:59:01.984Z,10.20
2023-02-11T10:01:40.166Z,10.73
2023-02-11T10:04:07.566Z,10.40
2023-02-11T10:06:43.809Z,10.30
2023-02-11T10:09:22.698Z,10.60
2023-02-11T10:12:04.876Z,10.73
2023-02-11T10:14:41.151Z,10.97
2023-02-11T10:17:37.584Z,11.40
2023-02-11T10:20:23.460Z,10.57
2023-02-11T10:22:54.803Z,10.90
2023-02-11T10:25:24.736Z,10.77
2023-02-11T10:27:52.888Z,10.23
2023-02-11T10:30:23.266Z,11.07
2023-02-11T10:32:52.918Z,11.18
2023-02-11T10:35:21.869Z,10.10
2023-02-11T10:37:49.346Z,9.83
2023-02-11T10:40:18.060Z,9.70
2023-02-11T10:42:46.971Z,9.43
2023-02-11T10:45:18.437Z,9.93
2023-02-11T10:47:45.678Z,10.00
2023-02-11T10:50:33.479Z,9.70
2023-02-11T10:53:26.868Z,10.03
2023-02-11T10:55:55.446Z,8.77
2023-02-11T10:58:25.309Z,10.38
2023-02-11T11:00:54.035Z,9.67
2023-02-11T11:03:22.617Z,9.00
2023-02-11T11:05:54.093Z,9.40
2023-02-11T11:08:24.209Z,9.27
2023-02-11T11:11:23.742Z,9.03
2023-02-11T11:13:53.569Z,9.50
2023-02-11T11:16:28.510Z,9.27
2023-02-11T11:19:25.019Z,8.53
2023-02-11T11:21:53.254Z,7.87
2023-02-11T11:24:29.368Z,9.10
2023-02-11T11:26:57.726Z,9.63
2023-02-11T11:29:28.708Z,10.10
2023-02-11T11:31:57.937Z,8.60
2023-02-11T11:34:29.425Z,10.10
2023-02-11T11:36:57.630Z,8.98
2023-02-11T11:39:30.534Z,9.33
2023-02-11T11:42:02.323Z,9.60
2023-02-11T11:44:36.610Z,10.17
2023-02-11T11:47:09.783Z,9.63
2023-02-11T11:49:40.241Z,9.47
2023-02-11T11:52:19.300Z,10.65
2023-02-11T11:54:48.826Z,9.67
2023-02-11T11:57:18.374Z,9.70
2023-02-11T11:59:46.021Z,9.40
2023-02-11T12:02:34.208Z,10.40
2023-02-11T12:05:07.646Z,9.90
2023-02-11T12:07:43.979Z,9.23
2023-02-11T12:10:17.012Z,9.80
2023-02-11T12:12:50.082Z,8.93
2023-02-11T12:15:28.924Z,10.13
2023-02-11T12:18:14.823Z,10.00
2023-02-11T12:20:51.265Z,9.57
2023-02-11T12:23:42.398Z,9.47
2023-02-11T12:26:12.486Z,9.00
2023-02-11T12:28:56.942Z,9.20
2023-02-11T12:31:24.113Z,9.70
2023-02-11T12:34:06.110Z,8.73
2023-02-11T12:36:39.000Z,7.60
2023-02-11T12:39:13.678Z,8.10
2023-02-11T12:42:05.900Z,7.93
2023-02-11T12:44:35.732Z,7.53
2023-02-11T12:47:11.769Z,7.73
2023-02-11T12:49:38.832Z,8.07
2023-02-11T12:52:30.213Z,7.57
2023-02-11T12:55:04.041Z,7.67
2023-02-11T12:57:33.396Z,7.23
2023-02-11T13:00:07.645Z,6.60
2023-02-11T13:02:59.753Z,6.53
2023-02-11T13:05:43.154Z,6.70
2023-02-11T13:08:32.479Z,7.03
2023-02-11T13:11:01.339Z,6.73
2023-02-11T13:13:53.952Z,6.33
2023-02-11T13:16:46.823Z,6.87
2023-02-11T13:19:13.938Z,6.50
2023-02-11T13:21:44.012Z,6.17
2023-02-11T13:24:20.468Z,5.87
2023-02-11T13:26:52.662Z,6.57
2023-02-11T13:29:24.650Z,7.30
2023-02-11T13:31:55.665Z,6.23
2023-02-11T13:34:41.458Z,6.60
2023-02-11T13:37:27.530Z,6.20
2023-02-11T13:40:01.849Z,6.00
2023-02-11T13:42:29.958Z,5.97
2023-02-11T13:44:57.593Z,6.07
2023-02-11T13:47:29.240Z,5.93
2023-02-11T13:49:56.832Z,5.80
2023-02-11T13:52:32.215Z,5.67
2023-02-11T13:55:06.466Z,5.87
2023-02-11T13:57:35.156Z,5.37
2023-02-11T14:00:06.026Z,5.37
2023-02-11T14:02:56.120Z,5.20
2023-02-11T14:05:46.611Z,5.67
2023-02-11T14:08:37.514Z,5.20
2023-02-11T14:11:25.015Z,5.07
2023-02-11T14:13:52.061Z,4.90
2023-02-11T14:16:37.002Z,4.87
2023-02-11T14:19:06.123Z,4.93
2023-02-11T14:21:38.296Z,4.10
2023-02-11T14:24:06.921Z,4.47
2023-02-11T14:26:41.420Z,4.73
2023-02-11T14:29:08.548Z,5.13
2023-02-11T14:31:35.684Z,4.33
2023-02-11T14:34:18.257Z,4.37
2023-02-11T14:36:48.768Z,4.53
2023-02-11T14:39:23.360Z,4.37
2023-02-11T14:41:53.880Z,4.57
2023-02-11T14:44:23.402Z,4.23
2023-02-11T14:46:54.760Z,4.60
2023-02-11T14:49:26.924Z,4.50
2023-02-11T14:52:01.036Z,4.30
2023-02-11T14:54:28.941Z,4.40
2023-02-11T14:57:09.410Z,3.90
2023-02-11T14:59:36.558Z,4.23
2023-02-11T15:02:03.940Z,4.57
2023-02-11T15:04:36.058Z,4.53
2023-02-11T15:07:08.047Z,4.70
2023-02-11T15:09:41.188Z,4.43
2023-02-11T15:12:17.325Z,4.70
2023-02-11T15:14:47.533Z,5.07
2023-02-11T15:17:17.490Z,5.20
2023-02-11T15:19:48.864Z,4.73
2023-02-11T15:22:22.268Z,4.30
2023-02-11T15:25:03.995Z,5.20
2023-02-11T15:27:39.111Z,4.70
2023-02-11T15:30:18.886Z,4.73
2023-02-11T15:32:46.081Z,5.27
2023-02-11T15:35:16.061Z,4.90
2023-02-11T15:37:45.522Z,4.93
2023-02-11T15:40:23.059Z,5.50
2023-02-11T15:42:55.076Z,5.33
2023-02-11T15:45:29.012Z,5.20
2023-02-11T15:47:59.268Z,5.00
2023-02-11T15:50:30.797Z,4.93
2023-02-11T15:52:59.965Z,5.47
2023-02-11T15:55:29.933Z,4.63
2023-02-11T15:57:59.036Z,4.57
2023-02-11T16:00:30.205Z,4.37
2023-02-11T16:02:57.319Z,4.70
2023-02-11T16:05:29.122Z,4.40
2023-02-11T16:07:57.031Z,5.00
2023-02-11T16:10:24.163Z,4.37
2023-02-11T16:12:52.488Z,4.53
2023-02-11T16:15:29.046Z,4.70
2023-02-11T16:17:56.251Z,3.80
2023-02-11T16:20:23.452Z,4.20
2023-02-11T16:22:50.603Z,3.70
2023-02-11T16:25:19.651Z,4.00
2023-02-11T16:27:49.934Z,4.00
2023-02-11T16:30:33.862Z,4.43
2023-02-11T16:33:01.218Z,3.90
2023-02-11T16:35:28.348Z,3.70
2023-02-11T16:37:57.685Z,4.00
2023-02-11T16:40:24.729Z,3.77
2023-02-11T16:42:53.444Z,3.83
2023-02-11T16:45:20.657Z,4.28
2023-02-11T16:47:47.748Z,3.90
2023-02-11T16:50:25.251Z,3.60
2023-02-11T16:52:55.122Z,4.17
2023-02-11T16:55:22.411Z,3.63
2023-02-11T16:57:49.733Z,3.70
2023-02-11T17:00:21.892Z,3.37
2023-02-11T17:02:51.283Z,3.33
2023-02-11T17:05:22.883Z,3.77
2023-02-11T17:07:50.277Z,3.85
2023-02-11T17:10:21.317Z,3.50
2023-02-11T17:12:51.272Z,3.50
2023-02-11T17:15:18.450Z,3.70
2023-02-11T17:17:48.121Z,3.50
2023-02-11T17:20:15.624Z,3.43
2023-02-11T17:22:42.735Z,4.22
2023-02-11T17:25:10.059Z,3.53
2023-02-11T17:27:37.168Z,3.47
2023-02-11T17:30:07.297Z,3.70
2023-02-11T17:32:34.527Z,4.03
2023-02-11T17:35:01.652Z,3.77
2023-02-11T17:37:31.765Z,3.47
2023-02-11T17:39:58.901Z,3.63
2023-02-11T17:42:29.126Z,4.10
2023-02-11T17:44:58.634Z,3.90
2023-02-11T17:47:25.883Z,4.10
2023-02-11T17:49:52.998Z,3.90
2023-02-11T17:52:24.193Z,4.20
2023-02-11T17:54:51.393Z,3.83
2023-02-11T17:57:18.638Z,3.73
2023-02-11T17:59:45.736Z,4.37
2023-02-11T18:02:13.512Z,4.18
2023-02-11T18:04:40.663Z,4.17
2023-02-11T18:07:07.835Z,4.33
2023-02-11T18:09:38.758Z,3.90
2023-02-11T18:12:06.723Z,4.50
2023-02-11T18:14:34.079Z,4.40
2023-02-11T18:17:01.252Z,4.13
2023-02-11T18:19:30.601Z,4.23
2023-02-11T18:22:00.844Z,4.47
2023-02-11T18:24:28.216Z,4.23
2023-02-11T18:26:57.489Z,4.30
2023-02-11T18:29:25.797Z,4.83
2023-02-11T18:31:55.267Z,4.50
2023-02-11T18:34:22.400Z,4.23
2023-02-11T18:36:49.849Z,3.70
2023-02-11T18:39:17.297Z,4.10
2023-02-11T18:41:44.396Z,4.20
2023-02-11T18:44:14.212Z,4.77
2023-02-11T18:46:41.694Z,4.43
2023-02-11T18:49:13.164Z,4.30
2023-02-11T18:51:42.596Z,4.47
2023-02-11T18:54:09.793Z,4.13
2023-02-11T18:56:36.958Z,4.00
2023-02-11T18:59:04.202Z,4.70
2023-02-11T19:01:33.601Z,4.27
2023-02-11T19:04:03.442Z,4.30
2023-02-11T19:06:32.543Z,4.80
2023-02-11T19:09:01.521Z,4.17
2023-02-11T19:11:49.631Z,4.57
2023-02-11T19:14:18.182Z,3.97
2023-02-11T19:16:49.944Z,4.47
2023-02-11T19:19:17.414Z,4.47
2023-02-11T19:21:45.355Z,4.50
2023-02-11T19:24:19.649Z,4.90
2023-02-11T19:26:50.147Z,4.10
2023-02-11T19:29:20.306Z,4.40
2023-02-11T19:31:47.684Z,4.83
2023-02-11T19:34:19.791Z,4.50
2023-02-11T19:36:49.409Z,4.40
2023-02-11T19:39:16.613Z,4.30
2023-02-11T19:41:46.271Z,4.50
2023-02-11T19:44:16.783Z,4.65
2023-02-11T19:46:44.093Z,4.70
2023-02-11T19:49:12.211Z,4.30
2023-02-11T19:51:39.562Z,4.73
2023-02-11T19:54:07.315Z,4.40
2023-02-11T19:56:34.460Z,4.40
2023-02-11T19:59:02.493Z,5.20
2023-02-11T20:01:29.685Z,4.63
2023-02-11T20:03:57.670Z,4.97
2023-02-11T20:06:26.086Z,4.97
2023-02-11T20:08:56.462Z,4.37
2023-02-11T20:11:25.571Z,4.73
2023-02-11T20:13:52.650Z,5.20
2023-02-11T20:16:21.700Z,5.03
2023-02-11T20:18:49.491Z,5.37
2023-02-11T20:21:17.680Z,5.57
2023-02-11T20:23:46.498Z,5.60
2023-02-11T20:26:17.494Z,5.63
2023-02-11T20:28:44.884Z,4.90
2023-02-11T20:31:12.494Z,5.30
2023-02-11T20:33:39.913Z,5.40
2023-02-11T20:36:08.519Z,5.57
2023-02-11T20:38:36.095Z,5.27
2023-02-11T20:41:15.435Z,5.87
2023-02-11T20:43:45.854Z,6.17
2023-02-11T20:46:16.006Z,5.90
2023-02-11T20:48:43.392Z,5.83
2023-02-11T20:51:11.672Z,5.50
2023-02-11T20:53:43.884Z,6.33
2023-02-11T20:56:12.500Z,5.87
2023-02-11T20:58:39.969Z,5.63
2023-02-11T21:01:16.728Z,6.70
2023-02-11T21:03:44.331Z,5.80
2023-02-11T21:06:12.082Z,5.80
2023-02-11T21:08:41.642Z,5.93
2023-02-11T21:11:09.336Z,5.70
2023-02-11T21:13:37.443Z,5.57
2023-02-11T21:16:04.873Z,6.23
2023-02-11T21:18:32.042Z,5.93
2023-02-11T21:20:59.403Z,5.77
2023-02-11T21:23:26.714Z,6.03
2023-02-11T21:25:59.160Z,6.27
2023-02-11T21:28:26.441Z,6.13
2023-02-11T21:30:54.377Z,6.13
2023-02-11T21:33:21.650Z,6.10
2023-02-11T21:35:48.805Z,6.27
2023-02-11T21:38:18.306Z,6.73
2023-02-11T21:40:45.404Z,6.50
2023-02-11T21:43:12.522Z,5.83
2023-02-11T21:45:44.052Z,6.40
2023-02-11T21:48:13.480Z,6.67
2023-02-11T21:50:41.057Z,6.00
2023-02-11T21:53:10.917Z,6.53
2023-02-11T21:55:40.792Z,6.82
2023-02-11T21:58:11.424Z,6.40
2023-02-11T22:00:38.672Z,6.40
2023-02-11T22:03:05.875Z,6.20
2023-02-11T22:05:32.994Z,6.87
2023-02-11T22:08:00.124Z,6.13
2023-02-11T22:10:27.219Z,5.97
2023-02-11T22:12:54.343Z,6.03
2023-02-11T22:15:21.465Z,6.50
2023-02-11T22:17:48.529Z,6.93
2023-02-11T22:20:16.551Z,6.93
2023-02-11T22:22:43.646Z,6.70
2023-02-11T22:25:10.733Z,6.40
2023-02-11T22:27:38.001Z,6.27
2023-02-11T22:30:07.520Z,6.60
2023-02-11T22:32:34.694Z,6.77
2023-02-11T22:35:01.776Z,7.38
2023-02-11T22:37:31.407Z,6.80
2023-02-11T22:40:00.977Z,6.67
2023-02-11T22:42:30.146Z,6.00
2023-02-11T22:44:56.889Z,6.17
2023-02-11T22:47:23.620Z,6.20
2023-02-11T22:49:52.492Z,6.73
2023-02-11T22:52:23.232Z,6.30
2023-02-11T22:54:51.289Z,5.93
2023-02-11T22:57:18.016Z,6.50
2023-02-11T22:59:44.770Z,7.50
2023-02-11T23:02:11.552Z,6.60
2023-02-11T23:04:40.736Z,6.97
2023-02-11T23:07:09.983Z,6.67
2023-02-11T23:09:36.932Z,6.87
2023-02-11T23:12:03.924Z,6.77
2023-02-11T23:14:30.710Z,6.77
2023-02-11T23:16:57.434Z,7.00
2023-02-11T23:19:24.130Z,6.97
2023-02-11T23:21:52.617Z,7.43
2023-02-11T23:24:19.302Z,6.97
2023-02-11T23:26:46.100Z,6.63
2023-02-11T23:29:15.129Z,6.83
2023-02-11T23:31:45.183Z,7.67
2023-02-11T23:34:20.314Z,7.47
2023-02-11T23:36:47.078Z,6.90
2023-02-11T23:39:15.851Z,7.07
2023-02-11T23:41:45.626Z,7.60
2023-02-11T23:44:15.125Z,7.67
2023-02-11T23:46:44.007Z,8.00
2023-02-11T23:49:10.756Z,7.87
2023-02-11T23:51:37.464Z,7.70
2023-02-11T23:54:04.231Z,7.87
2023-02-11T23:56:31.019Z,6.57
2023-02-11T23:59:00.296Z,7.20
